Time;durP1;ratioP1;P1;durP2;ratioP2;P2;SDS_P1;SDS_P2;PMS_P1;PMS_P2;Temp;Humidity;BMP_temperature;BMP_pressure;BME280_temperature;BME280_humidity;BME280_pressure;Samples;Min_cycle;Max_cycle;Signal;HPM_P1;HPM_P2
2021/12/09 00:02:20;;;;;;;14.43;6.00;;;;;;;0.97;100.00;99730.34;5019444;28;20021;-72
2021/12/09 00:04:47;;;;;;;15.10;5.97;;;;;;;0.40;100.00;99635.22;5034636;28;20035;-73
2021/12/09 00:07:14;;;;;;;19.52;6.68;;;;;;;0.60;100.00;99700.69;5035939;28;20029;-73
2021/12/09 00:09:40;;;;;;;19.20;6.68;;;;;;;0.67;100.00;99675.97;5035482;28;20043;-73
2021/12/09 00:12:06;;;;;;;21.40;6.38;;;;;;;0.88;100.00;99723.13;5018101;28;20022;-73
2021/12/09 00:14:34;;;;;;;18.30;6.90;;;;;;;0.86;100.00;99713.78;5017274;28;20382;-73
2021/12/09 00:17:04;;;;;;;23.63;6.40;;;;;;;0.89;100.00;99727.44;5033583;28;20059;-73
2021/12/09 00:19:30;;;;;;;19.23;6.82;;;;;;;0.09;100.00;99618.19;5033973;28;20689;-73
2021/12/09 00:21:57;;;;;;;19.33;6.78;;;;;;;1.04;100.00;99749.00;5051845;28;20112;-73
2021/12/09 00:24:22;;;;;;;20.05;7.53;;;;;;;1.01;100.00;99699.81;5050951;28;20086;-74
2021/12/09 00:26:48;;;;;;;17.10;6.60;;;;;;;0.97;100.00;99738.16;5050086;28;20463;-73
2021/12/09 00:29:18;;;;;;;17.10;6.70;;;;;;;0.75;100.00;99707.53;5033806;28;20053;-73
2021/12/09 00:31:44;;;;;;;18.80;7.00;;;;;;;0.95;100.00;99731.38;5033875;28;20032;-73
2021/12/09 00:34:11;;;;;;;17.50;7.07;;;;;;;0.95;100.00;99757.38;5051331;28;20035;-72
2021/12/09 00:36:41;;;;;;;17.15;6.72;;;;;;;0.77;100.00;99742.03;5050481;28;20032;-73
2021/12/09 00:39:09;;;;;;;18.58;6.97;;;;;;;1.03;100.00;99749.94;5049795;28;20052;-72
2021/12/09 00:41:34;;;;;;;18.10;7.10;;;;;;;1.12;100.00;99758.91;5033433;28;20041;-73
2021/12/09 00:44:01;;;;;;;16.58;6.63;;;;;;;0.62;100.00;99667.66;5032211;28;20037;-74
2021/12/09 00:46:30;;;;;;;21.38;7.05;;;;;;;0.33;100.00;99646.13;5032355;28;20497;-73
2021/12/09 00:48:56;;;;;;;21.05;7.20;;;;;;;0.72;100.00;99705.09;5031738;28;20056;-74
2021/12/09 00:51:22;;;;;;;16.65;6.00;;;;;;;1.09;100.00;99736.56;5016047;28;20378;-73
2021/12/09 00:53:48;;;;;;;21.73;6.43;;;;;;;0.95;100.00;99768.59;5032827;28;20108;-71
2021/12/09 00:56:15;;;;;;;19.25;7.05;;;;;;;0.93;100.00;99769.63;5050441;28;20025;-73
2021/12/09 00:58:42;;;;;;;18.95;7.35;;;;;;;0.98;100.00;99755.44;4997569;28;20067;-72
2021/12/09 01:01:08;;;;;;;18.73;7.25;;;;;;;0.90;100.00;99764.63;5032966;28;20047;-72
2021/12/09 01:03:36;;;;;;;18.95;6.93;;;;;;;0.44;100.00;99698.22;5016473;28;20033;-73
2021/12/09 01:06:03;;;;;;;16.38;7.20;;;;;;;0.26;100.00;99676.00;5031560;28;20029;-73
2021/12/09 01:08:28;;;;;;;15.13;6.90;;;;;;;0.71;100.00;99757.19;5014173;28;20101;-73
2021/12/09 01:10:54;;;;;;;16.83;6.90;;;;;;;0.71;100.00;99755.41;5049826;28;20632;-73
2021/12/09 01:13:20;;;;;;;16.42;7.18;;;;;;;0.68;100.00;99767.75;5052811;28;20029;-73
2021/12/09 01:15:46;;;;;;;23.92;7.55;;;;;;;0.38;100.00;99753.97;5031980;28;20082;-73
2021/12/09 01:18:11;;;;;;;17.85;7.55;;;;;;;0.45;100.00;99738.84;5048008;28;20036;-74
2021/12/09 01:20:37;;;;;;;20.45;8.00;;;;;;;0.48;100.00;99785.41;5050139;28;20017;-73
2021/12/09 01:23:03;;;;;;;18.23;7.60;;;;;;;0.49;100.00;99758.50;5016104;28;20169;-73
2021/12/09 01:25:35;;;;;;;20.58;7.50;;;;;;;0.50;100.00;99764.53;5050755;28;20027;-74
2021/12/09 01:28:03;;;;;;;20.02;7.13;;;;;;;0.37;100.00;99728.94;5014648;28;20398;-74
2021/12/09 01:30:29;;;;;;;25.80;7.07;;;;;;;0.62;100.00;99745.59;5015926;28;20044;-74
2021/12/09 01:32:55;;;;;;;20.58;6.65;;;;;;;-0.22;100.00;99630.44;5016336;28;20044;-74
2021/12/09 01:35:31;;;;;;;19.88;7.30;;;;;;;0.02;100.00;99648.00;5033000;28;20029;-72
2021/12/09 01:38:01;;;;;;;16.45;7.15;;;;;;;0.46;100.00;99739.69;5030832;28;20586;-73
2021/12/09 01:40:29;;;;;;;21.33;7.18;;;;;;;0.50;100.00;99775.78;5031135;28;20049;-73
2021/12/09 01:42:57;;;;;;;17.70;7.38;;;;;;;0.63;100.00;99768.03;5015111;28;20025;-73
2021/12/09 01:45:23;;;;;;;22.85;8.50;;;;;;;0.48;100.00;99781.97;5032515;28;20035;-73
2021/12/09 01:47:48;;;;;;;18.60;7.10;;;;;;;-0.08;100.00;99652.94;5030661;28;20029;-73
2021/12/09 01:50:14;;;;;;;15.52;7.00;;;;;;;-0.11;100.00;99653.16;5013815;28;20028;-73
2021/12/09 01:52:40;;;;;;;19.17;7.10;;;;;;;0.56;100.00;99766.75;5049662;28;20036;-73
2021/12/09 01:55:08;;;;;;;19.48;7.90;;;;;;;0.35;100.00;99740.34;5032456;28;20533;-73
2021/12/09 01:57:35;;;;;;;17.73;7.60;;;;;;;0.47;100.00;99768.16;5049858;28;20029;-74
2021/12/09 02:00:01;;;;;;;21.92;8.18;;;;;;;0.34;100.00;99764.63;5014166;28;20753;-74
2021/12/09 02:02:27;;;;;;;19.35;6.90;;;;;;;0.04;100.00;99724.03;5049342;28;20029;-74
2021/12/09 02:04:52;;;;;;;22.05;7.65;;;;;;;0.32;100.00;99724.94;5048461;28;20108;-73
2021/12/09 02:07:18;;;;;;;22.20;8.18;;;;;;;0.39;100.00;99754.81;5047360;28;20086;-73
2021/12/09 02:09:44;;;;;;;20.08;7.68;;;;;;;0.11;100.00;99720.13;5046562;28;20025;-72
2021/12/09 02:12:11;;;;;;;18.75;7.38;;;;;;;-0.70;100.00;99575.44;5031078;28;20033;-74
2021/12/09 02:14:42;;;;;;;21.50;7.75;;;;;;;0.16;100.00;99733.69;5015231;28;20040;-73
2021/12/09 02:17:09;;;;;;;19.98;6.88;;;;;;;0.53;100.00;99753.97;5027090;28;20025;-72
2021/12/09 02:19:35;;;;;;;15.23;7.18;;;;;;;0.42;100.00;99746.81;5028467;28;20025;-72
2021/12/09 02:22:01;;;;;;;19.13;7.30;;;;;;;-0.46;100.00;99631.91;4992079;28;20032;-72
2021/12/09 02:24:27;;;;;;;16.98;7.10;;;;;;;-0.09;100.00;99704.94;5010679;28;20468;-71
2021/12/09 02:26:52;;;;;;;19.52;7.85;;;;;;;0.33;100.00;99758.59;5029918;28;20056;-73
2021/12/09 02:29:19;;;;;;;20.52;7.35;;;;;;;0.45;100.00;99774.38;5028794;28;20053;-73
2021/12/09 02:31:45;;;;;;;22.77;7.28;;;;;;;-0.70;100.00;99618.69;5027416;28;20044;-72
2021/12/09 02:34:11;;;;;;;21.20;8.00;;;;;;;-0.62;100.00;99616.44;5029395;28;20026;-71
2021/12/09 02:36:40;;;;;;;21.13;7.60;;;;;;;0.13;100.00;99741.63;5027269;28;20373;-73
2021/12/09 02:39:09;;;;;;;20.17;7.07;;;;;;;0.37;100.00;99760.09;5010996;28;20128;-73
2021/12/09 02:41:39;;;;;;;21.02;7.72;;;;;;;0.36;100.00;99762.78;5026739;28;20073;-72
2021/12/09 02:44:08;;;;;;;21.45;7.13;;;;;;;0.11;100.00;99712.34;5046729;28;20038;-72
2021/12/09 02:46:37;;;;;;;20.77;7.38;;;;;;;0.48;100.00;99753.38;5054116;28;20068;-71
2021/12/09 02:49:06;;;;;;;19.75;7.03;;;;;;;0.40;100.00;99749.50;5028272;28;20029;-71
2021/12/09 02:51:32;;;;;;;17.80;7.38;;;;;;;0.26;100.00;99759.09;5009270;28;20033;-73
2021/12/09 02:53:57;;;;;;;19.23;7.50;;;;;;;0.65;100.00;99754.97;5025625;28;20029;-72
2021/12/09 02:56:23;;;;;;;20.98;7.15;;;;;;;-0.07;100.00;99680.59;5027894;28;20021;-72
2021/12/09 02:58:48;;;;;;;20.38;7.07;;;;;;;0.09;100.00;99708.19;5027068;28;20032;-72
2021/12/09 03:01:28;;;;;;;18.50;6.63;;;;;;;0.28;100.00;99757.22;5027863;28;20375;-73
2021/12/09 03:03:58;;;;;;;20.92;7.05;;;;;;;0.17;100.00;99756.09;5025756;28;20040;-72
2021/12/09 03:06:36;;;;;;;24.00;7.43;;;;;;;0.04;100.00;99726.63;5029379;28;20049;-71
2021/12/09 03:09:13;;;;;;;18.27;7.13;;;;;;;-0.17;100.00;99694.19;5011032;28;20029;-73
2021/12/09 03:11:41;;;;;;;20.17;6.70;;;;;;;0.28;100.00;99763.25;4994572;28;20029;-71
2021/12/09 03:14:07;;;;;;;19.73;6.85;;;;;;;0.13;100.00;99712.25;5011046;28;20049;-72
2021/12/09 03:16:34;;;;;;;22.58;6.47;;;;;;;0.19;100.00;99745.66;5031789;28;20060;-73
2021/12/09 03:19:03;;;;;;;20.23;6.88;;;;;;;0.25;100.00;99740.09;5032442;28;20040;-73
2021/12/09 03:21:32;;;;;;;17.88;6.90;;;;;;;0.53;100.00;99759.97;5031139;28;20074;-73
2021/12/09 03:24:00;;;;;;;21.15;6.80;;;;;;;0.50;100.00;99760.19;5031052;28;20049;-72
2021/12/09 03:26:29;;;;;;;17.50;6.30;;;;;;;0.31;100.00;99752.66;5031580;28;20096;-71
2021/12/09 03:28:58;;;;;;;17.23;6.97;;;;;;;0.12;100.00;99767.72;5000450;28;20107;-73
2021/12/09 03:31:23;;;;;;;15.93;6.20;;;;;;;0.50;100.00;99769.72;5033204;28;20025;-72
2021/12/09 03:33:49;;;;;;;13.82;6.22;;;;;;;-0.06;100.00;99731.53;5013988;28;20258;-73
2021/12/09 03:36:15;;;;;;;21.67;8.60;;;;;;;0.07;100.00;99731.66;5030649;28;20087;-73
2021/12/09 03:38:41;;;;;;;16.05;6.97;;;;;;;0.07;100.00;99738.59;5035299;28;20037;-72
2021/12/09 03:41:06;;;;;;;18.83;6.63;;;;;;;0.23;100.00;99728.09;5034465;28;20049;-72
2021/12/09 03:43:32;;;;;;;17.73;6.30;;;;;;;0.40;100.00;99770.28;5017670;28;20034;-72
2021/12/09 03:45:58;;;;;;;17.77;6.30;;;;;;;0.25;100.00;99757.41;5034532;28;20049;-73
2021/12/09 03:48:28;;;;;;;13.52;5.90;;;;;;;0.03;100.00;99748.34;5018607;28;20112;-73
2021/12/09 03:50:54;;;;;;;13.85;6.25;;;;;;;-0.15;100.00;99763.25;5034941;28;20180;-72
2021/12/09 03:53:20;;;;;;;15.60;6.75;;;;;;;0.07;100.00;99769.72;5019131;28;20475;-72
2021/12/09 03:55:47;;;;;;;17.65;6.38;;;;;;;-0.09;100.00;99721.38;5015269;28;20112;-72
2021/12/09 03:58:13;;;;;;;16.40;6.45;;;;;;;0.17;100.00;99782.06;5014510;28;20037;-72
2021/12/09 04:00:39;;;;;;;15.43;6.00;;;;;;;-0.65;100.00;99658.94;5030775;28;20105;-72
2021/12/09 04:03:06;;;;;;;20.00;6.68;;;;;;;-0.88;100.00;99654.28;5034557;28;20029;-71
2021/12/09 04:05:32;;;;;;;19.02;7.30;;;;;;;-0.48;100.00;99733.19;5016676;28;20395;-72
2021/12/09 04:07:58;;;;;;;18.25;6.80;;;;;;;-1.11;100.00;99665.97;5032060;28;20028;-72
2021/12/09 04:10:24;;;;;;;13.18;6.38;;;;;;;-0.70;100.00;99705.06;4998188;28;20029;-72
2021/12/09 04:12:50;;;;;;;16.73;6.20;;;;;;;-0.13;100.00;99794.28;5001592;28;20475;-71
2021/12/09 04:15:15;;;;;;;16.85;6.30;;;;;;;-1.02;100.00;99719.00;5035879;28;20026;-72
2021/12/09 04:17:41;;;;;;;19.70;6.75;;;;;;;-0.31;100.00;99822.97;5034207;28;20486;-72
2021/12/09 04:20:09;;;;;;;20.35;6.70;;;;;;;-0.60;100.00;99777.94;5034557;28;20038;-72
2021/12/09 04:22:35;;;;;;;19.55;6.43;;;;;;;-0.41;100.00;99775.13;5016834;28;20044;-72
2021/12/09 04:25:01;;;;;;;16.65;6.47;;;;;;;-0.47;100.00;99781.50;5014512;28;20032;-71
2021/12/09 04:27:27;;;;;;;16.95;6.20;;;;;;;-0.30;100.00;99790.06;4982381;28;20022;-73
2021/12/09 04:29:53;;;;;;;19.13;6.45;;;;;;;-0.09;100.00;99811.34;5032700;28;20036;-72
2021/12/09 04:32:19;;;;;;;21.38;6.35;;;;;;;-1.03;100.00;99660.34;5033040;28;20364;-72
2021/12/09 04:34:45;;;;;;;18.80;6.18;;;;;;;-0.73;100.00;99719.94;5032501;28;20037;-72
2021/12/09 04:37:11;;;;;;;19.90;6.57;;;;;;;-0.10;100.00;99799.28;5032621;28;20036;-73
2021/12/09 04:39:37;;;;;;;15.65;6.40;;;;;;;-0.32;100.00;99764.25;4997970;28;20029;-73
2021/12/09 04:42:04;;;;;;;18.73;6.57;;;;;;;-0.66;100.00;99718.66;5032711;28;20392;-72
2021/12/09 04:44:30;;;;;;;19.85;6.55;;;;;;;-0.47;100.00;99759.94;5032407;28;20087;-73
2021/12/09 04:46:56;;;;;;;15.57;6.22;;;;;;;-0.50;100.00;99754.91;5030680;28;20029;-71
2021/12/09 04:49:22;;;;;;;15.98;6.15;;;;;;;-0.63;100.00;99723.69;5029766;28;20053;-72
2021/12/09 04:51:48;;;;;;;23.90;5.90;;;;;;;-1.01;100.00;99651.56;5031684;28;20034;-72
2021/12/09 04:54:15;;;;;;;19.65;6.18;;;;;;;-0.55;100.00;99686.94;5031337;28;20056;-73
2021/12/09 04:56:41;;;;;;;18.58;6.28;;;;;;;-0.33;100.00;99783.31;5031963;28;20108;-71
2021/12/09 04:59:07;;;;;;;22.92;6.93;;;;;;;-0.90;100.00;99692.41;5032593;28;20060;-72
2021/12/09 05:01:34;;;;;;;19.20;5.85;;;;;;;-0.93;100.00;99721.06;5032459;28;20475;-71
2021/12/09 05:04:00;;;;;;;23.33;6.07;;;;;;;-0.53;100.00;99781.84;5032337;28;20025;-72
2021/12/09 05:06:26;;;;;;;20.45;6.30;;;;;;;-0.55;100.00;99764.72;4999014;28;20515;-73
2021/12/09 05:08:52;;;;;;;24.65;6.50;;;;;;;-1.00;100.00;99709.38;4998525;28;20058;-73
2021/12/09 05:11:33;;;;;;;15.77;6.18;;;;;;;-0.16;100.00;99817.81;5014095;28;20033;-74
2021/12/09 05:14:05;;;;;;;19.85;6.05;;;;;;;-0.44;100.00;99780.50;5037524;28;20122;-72
2021/12/09 05:16:32;;;;;;;17.40;5.72;;;;;;;-0.32;100.00;99810.06;5013667;28;20013;-71
2021/12/09 05:18:59;;;;;;;18.58;6.13;;;;;;;-0.44;100.00;99803.84;5039174;28;20022;-72
2021/12/09 05:21:29;;;;;;;24.92;6.22;;;;;;;-1.12;100.00;99695.38;5035853;28;20026;-73
2021/12/09 05:23:57;;;;;;;20.58;5.80;;;;;;;-0.43;100.00;99782.19;5003529;28;20025;-72
2021/12/09 05:26:29;;;;;;;18.17;5.93;;;;;;;-0.82;100.00;99705.75;5019375;28;20501;-72
2021/12/09 05:28:56;;;;;;;17.25;5.68;;;;;;;-0.47;100.00;99789.28;5017641;28;20028;-72
2021/12/09 05:34:17;;;;;;;19.13;6.55;;;;;;;-0.25;100.00;99812.25;5052331;28;20032;-73
2021/12/09 05:36:43;;;;;;;21.60;6.18;;;;;;;-0.91;100.00;99714.91;5052703;28;20119;-73
2021/12/09 05:39:11;;;;;;;21.05;6.00;;;;;;;-0.69;100.00;99768.09;5050855;28;20033;-72
2021/12/09 05:41:37;;;;;;;17.15;6.57;;;;;;;-0.47;100.00;99768.53;5033033;28;20041;-73
2021/12/09 05:44:05;;;;;;;19.45;6.05;;;;;;;-0.51;100.00;99782.59;5033437;28;20122;-73
2021/12/09 05:46:34;;;;;;;18.10;5.45;;;;;;;-0.53;100.00;99783.63;5034426;28;20039;-72
2021/12/09 05:49:00;;;;;;;23.38;6.13;;;;;;;-0.90;100.00;99713.13;5036902;28;20029;-72
2021/12/09 05:51:27;;;;;;;23.10;5.65;;;;;;;-0.69;100.00;99750.78;5033852;28;20614;-72
2021/12/09 05:53:55;;;;;;;18.70;5.85;;;;;;;-0.65;100.00;99757.47;5037435;28;20024;-72
2021/12/09 05:56:21;;;;;;;17.27;5.72;;;;;;;-0.52;100.00;99778.34;5036245;28;20082;-73
2021/12/09 05:58:46;;;;;;;19.45;5.95;;;;;;;-0.16;100.00;99818.66;5036121;28;20024;-72
2021/12/09 06:01:13;;;;;;;20.50;5.78;;;;;;;-1.08;100.00;99683.91;5036698;28;20029;-73
2021/12/09 06:03:39;;;;;;;16.67;5.13;;;;;;;0.03;100.00;99846.13;5022156;28;20026;-74
2021/12/09 06:06:04;;;;;;;20.05;6.35;;;;;;;-0.80;100.00;99747.13;5033653;28;20036;-74
2021/12/09 06:08:30;;;;;;;19.58;6.00;;;;;;;-0.60;100.00;99782.31;5033323;28;20128;-72
2021/12/09 06:10:58;;;;;;;21.45;6.78;;;;;;;-0.32;100.00;99810.94;5022712;28;20045;-80
2021/12/09 06:13:26;;;;;;;26.63;6.07;;;;;;;-0.61;100.00;99781.47;4988607;28;20025;-74
2021/12/09 06:15:52;;;;;;;25.08;6.65;;;;;;;-0.58;100.00;99757.13;5031385;28;20025;-74
2021/12/09 06:18:17;;;;;;;21.52;5.90;;;;;;;-0.98;100.00;99744.66;5044032;28;20367;-74
2021/12/09 06:20:43;;;;;;;18.33;5.85;;;;;;;-1.51;100.00;99650.91;5037309;28;20025;-73
2021/12/09 06:23:09;;;;;;;19.75;6.40;;;;;;;-1.33;100.00;99655.97;5054361;28;20032;-74
2021/12/09 06:25:34;;;;;;;22.60;6.78;;;;;;;-0.54;100.00;99811.31;5055080;28;20060;-78
2021/12/09 06:28:00;;;;;;;26.73;6.80;;;;;;;-1.20;100.00;99702.72;5041354;28;20411;-73
2021/12/09 06:30:26;;;;;;;18.08;5.55;;;;;;;-0.70;100.00;99780.25;5044865;28;20410;-73
2021/12/09 06:32:52;;;;;;;20.02;5.47;;;;;;;-0.42;100.00;99815.78;5045038;28;20029;-73
2021/12/09 06:35:19;;;;;;;16.90;5.80;;;;;;;-0.36;100.00;99821.53;5051553;28;20025;-73
2021/12/09 06:37:47;;;;;;;19.27;6.22;;;;;;;-0.36;100.00;99827.59;5050059;28;20075;-72
2021/12/09 06:40:17;;;;;;;24.33;6.38;;;;;;;-0.37;100.00;99838.03;5048438;28;20060;-72
2021/12/09 06:42:45;;;;;;;25.65;6.30;;;;;;;-0.72;100.00;99776.06;5035990;28;20526;-74
2021/12/09 06:45:12;;;;;;;24.80;6.00;;;;;;;-0.71;100.00;99768.19;5040140;28;20085;-75
2021/12/09 06:47:40;;;;;;;21.85;5.88;;;;;;;-1.09;100.00;99737.50;5026090;28;20029;-73
2021/12/09 06:50:08;;;;;;;25.00;6.72;;;;;;;-0.43;100.00;99801.16;5034580;28;20037;-75
2021/12/09 06:52:34;;;;;;;20.98;6.07;;;;;;;-0.91;100.00;99742.56;5013448;28;20029;-73
2021/12/09 06:55:00;;;;;;;22.95;6.03;;;;;;;-0.36;100.00;99837.97;5024961;28;20122;-72
2021/12/09 06:57:27;;;;;;;21.70;6.38;;;;;;;-0.40;100.00;99840.81;5037910;28;20030;-74
2021/12/09 06:59:54;;;;;;;35.58;7.97;;;;;;;-0.08;100.00;99844.97;5058439;28;20064;-76
2021/12/09 07:02:20;;;;;;;48.33;15.43;;;;;;;-1.21;100.00;99647.50;5022928;28;20040;-78
2021/12/09 07:04:46;;;;;;;35.05;10.63;;;;;;;-0.45;100.00;99776.25;5033728;28;20033;-73
2021/12/09 07:07:12;;;;;;;91.80;29.70;;;;;;;0.18;100.00;99866.84;5025824;28;20021;-73
2021/12/09 07:09:38;;;;;;;27.77;7.30;;;;;;;-0.04;100.00;99830.91;5044285;28;20044;-74
2021/12/09 07:12:04;;;;;;;20.55;6.80;;;;;;;-0.48;100.00;99771.22;5044176;28;20043;-73
2021/12/09 07:14:30;;;;;;;16.23;5.85;;;;;;;-0.24;100.00;99852.81;5062093;28;20057;-73
2021/12/09 07:16:55;;;;;;;20.75;6.07;;;;;;;-0.54;100.00;99749.09;5058740;28;20040;-74
2021/12/09 07:19:22;;;;;;;24.48;6.80;;;;;;;-0.30;100.00;99803.88;5062671;28;20032;-75
2021/12/09 07:21:47;;;;;;;19.70;6.80;;;;;;;0.10;100.00;99827.50;5043872;28;20029;-75
2021/12/09 07:24:13;;;;;;;36.28;14.05;;;;;;;-0.56;100.00;99721.56;5061763;28;20025;-80
2021/12/09 07:26:42;;;;;;;31.58;10.90;;;;;;;0.17;100.00;99853.94;5042805;28;20102;-74
2021/12/09 07:29:07;;;;;;;22.50;6.07;;;;;;;-0.67;100.00;99768.84;5020424;28;20158;-75
2021/12/09 07:31:33;;;;;;;30.98;11.40;;;;;;;-0.62;100.00;99735.72;5035694;28;20021;-80
2021/12/09 07:34:00;;;;;;;22.92;6.93;;;;;;;-0.36;100.00;99790.41;5019350;28;20052;-75
2021/12/09 07:36:26;;;;;;;21.80;7.93;;;;;;;-0.47;100.00;99740.03;5032426;28;20374;-75
2021/12/09 07:38:53;;;;;;;19.98;6.03;;;;;;;-0.28;100.00;99776.09;5000850;28;20034;-74
2021/12/09 07:41:19;;;;;;;18.55;6.63;;;;;;;-0.21;100.00;99792.97;5006594;28;20508;-77
2021/12/09 07:43:45;;;;;;;17.08;6.47;;;;;;;-0.38;100.00;99785.34;5028693;28;20046;-74
2021/12/09 07:46:11;;;;;;;23.60;6.00;;;;;;;-0.52;100.00;99778.34;5023358;28;20033;-74
2021/12/09 07:48:37;;;;;;;17.98;5.55;;;;;;;-0.37;100.00;99739.47;5034367;28;20097;-73
2021/12/09 07:51:04;;;;;;;23.50;7.72;;;;;;;-0.28;100.00;99764.88;5049322;28;20576;-74
2021/12/09 07:53:29;;;;;;;36.33;10.95;;;;;;;0.08;100.00;99818.13;5052108;28;20395;-73
2021/12/09 07:55:56;;;;;;;23.65;6.25;;;;;;;0.46;100.00;99859.16;5036877;28;20013;-73
2021/12/09 07:58:22;;;;;;;18.40;6.28;;;;;;;0.52;100.00;99885.63;5034549;28;20395;-73
2021/12/09 08:00:49;;;;;;;28.98;9.88;;;;;;;-0.05;100.00;99792.88;5036128;28;20062;-76
2021/12/09 08:03:15;;;;;;;19.45;7.00;;;;;;;0.73;100.00;99860.09;5045101;28;20029;-73
2021/12/09 08:05:45;;;;;;;20.67;6.68;;;;;;;0.74;100.00;99892.09;5051034;28;20034;-73
2021/12/09 08:08:11;;;;;;;15.18;5.97;;;;;;;0.49;100.00;99848.59;5033833;28;20471;-74
2021/12/09 08:10:38;;;;;;;19.83;6.13;;;;;;;-0.02;100.00;99794.50;5039211;28;20021;-72
2021/12/09 08:13:04;;;;;;;20.20;5.88;;;;;;;0.34;100.00;99894.47;5024087;28;20029;-73
2021/12/09 08:15:34;;;;;;;23.20;6.47;;;;;;;0.45;100.00;99889.47;5055905;28;20013;-77
2021/12/09 08:20:38;;;;;;;18.50;5.60;;;;;;;-0.45;100.00;99791.81;5034733;28;20022;-73
2021/12/09 08:23:05;;;;;;;20.20;6.30;;;;;;;0.33;100.00;99896.25;5045481;28;20083;-72
2021/12/09 08:25:31;;;;;;;40.25;13.98;;;;;;;0.30;100.00;99906.81;5057671;28;20099;-78
2021/12/09 08:27:56;;;;;;;18.30;5.97;;;;;;;0.32;100.00;99897.19;5033070;28;20459;-74
2021/12/09 08:30:25;;;;;;;19.73;6.35;;;;;;;-0.09;100.00;99807.00;5045386;28;20029;-74
2021/12/09 08:32:54;;;;;;;18.95;6.55;;;;;;;0.35;100.00;99907.38;5045785;28;20021;-73
2021/12/09 08:35:21;;;;;;;23.13;7.00;;;;;;;0.37;100.00;99900.34;5042950;28;20033;-73
2021/12/09 08:37:48;;;;;;;20.40;6.50;;;;;;;0.17;100.00;99830.56;5003726;28;20021;-72
2021/12/09 08:40:15;;;;;;;19.83;6.45;;;;;;;0.34;100.00;99895.34;5041137;28;20026;-75
2021/12/09 08:42:43;;;;;;;22.60;8.02;;;;;;;0.58;100.00;99911.22;5030374;28;20778;-73
2021/12/09 08:45:10;;;;;;;20.20;6.55;;;;;;;0.40;100.00;99918.31;5036389;28;20034;-72
2021/12/09 08:47:38;;;;;;;23.67;7.53;;;;;;;-0.09;100.00;99798.34;5017751;28;20037;-72
2021/12/09 08:50:16;;;;;;;21.52;7.25;;;;;;;0.67;100.00;99927.19;5034270;28;20025;-74
2021/12/09 08:52:42;;;;;;;22.30;7.00;;;;;;;0.05;100.00;99842.53;5033962;28;20026;-73
2021/12/09 08:55:08;;;;;;;25.77;8.88;;;;;;;0.83;100.00;99918.34;5035230;28;20036;-73
2021/12/09 08:57:36;;;;;;;17.40;7.30;;;;;;;0.76;100.00;99892.84;5018055;28;20026;-72
2021/12/09 09:00:14;;;;;;;21.55;7.63;;;;;;;0.85;100.00;99944.25;5038145;28;20032;-72
2021/12/09 09:02:41;;;;;;;28.05;8.68;;;;;;;0.34;100.00;99834.75;5035128;28;20480;-74
2021/12/09 09:05:11;;;;;;;19.33;7.88;;;;;;;0.44;100.00;99820.28;5018345;28;20025;-72
2021/12/09 09:07:55;;;;;;;20.23;8.13;;;;;;;1.02;100.00;99925.88;5035268;28;20072;-73
2021/12/09 09:10:22;;;;;;;;;;;;;;;1.01;100.00;99931.19;5035573;28;20057;-72
2021/12/09 09:12:50;;;;;;;25.98;9.35;;;;;;;1.00;100.00;99893.94;5049707;28;20466;-72
2021/12/09 09:15:18;;;;;;;55.28;20.13;;;;;;;0.66;100.00;99822.44;5034442;28;20029;-75
2021/12/09 09:17:44;;;;;;;24.70;9.00;;;;;;;-0.18;100.00;99731.44;5000733;28;20049;-72
2021/12/09 09:20:12;;;;;;;24.95;9.20;;;;;;;1.00;100.00;99912.16;5032850;28;20106;-72
2021/12/09 09:22:39;;;;;;;24.98;8.77;;;;;;;0.99;100.00;99894.03;5015957;28;20025;-73
2021/12/09 09:25:09;;;;;;;25.58;9.23;;;;;;;1.02;100.00;99923.28;5032611;28;20121;-73
2021/12/09 09:27:35;;;;;;;28.08;9.45;;;;;;;0.89;100.00;99831.38;5033935;28;20102;-72
2021/12/09 09:30:02;;;;;;;22.92;9.38;;;;;;;0.73;100.00;99745.75;5032533;28;20053;-74
2021/12/09 09:32:28;;;;;;;26.83;9.77;;;;;;;1.31;100.00;99868.59;5034956;28;20018;-73
2021/12/09 09:34:54;;;;;;;21.33;9.02;;;;;;;1.31;100.00;99873.81;5034643;28;20021;-72
2021/12/09 09:37:26;;;;;;;25.48;9.32;;;;;;;1.48;100.00;99890.97;5032828;28;20486;-72
2021/12/09 09:39:51;;;;;;;27.23;9.85;;;;;;;1.45;100.00;99917.16;5016286;28;20037;-73
2021/12/09 09:42:34;;;;;;;28.33;9.55;;;;;;;1.27;100.00;99859.31;5031681;28;20041;-73
2021/12/09 09:45:13;;;;;;;25.20;9.18;;;;;;;1.16;100.00;99883.44;5032909;28;20495;-72
2021/12/09 09:47:39;;;;;;;26.67;9.10;;;;;;;0.92;100.00;99826.00;5034265;28;20214;-72
2021/12/09 09:50:08;;;;;;;24.83;8.77;;;;;;;0.44;100.00;99786.53;5033855;28;20021;-73
2021/12/09 09:52:34;;;;;;;25.77;9.45;;;;;;;1.09;100.00;99863.94;5034040;28;20049;-72
2021/12/09 09:55:02;;;;;;;29.67;10.40;;;;;;;1.13;100.00;99877.56;5017675;28;20091;-73
2021/12/09 09:57:28;;;;;;;27.98;10.38;;;;;;;0.67;100.00;99782.50;5053858;28;20074;-72
2021/12/09 09:59:54;;;;;;;24.60;9.50;;;;;;;0.92;100.00;99845.97;5036224;28;20029;-71
2021/12/09 10:02:20;;;;;;;29.52;10.13;;;;;;;1.06;100.00;99889.28;5052786;28;20032;-74
2021/12/09 10:04:48;;;;;;;28.17;9.65;;;;;;;1.35;100.00;99931.69;5053809;28;20467;-73
2021/12/09 10:07:20;;;;;;;24.75;9.57;;;;;;;1.33;100.00;99938.75;5032806;28;20026;-73
2021/12/09 10:09:48;;;;;;;27.67;9.32;;;;;;;1.35;100.00;99897.88;5034547;28;20538;-73
2021/12/09 10:12:15;;;;;;;28.25;9.10;;;;;;;0.87;100.00;99820.25;5033954;28;20021;-73
2021/12/09 10:14:46;;;;;;;25.38;8.88;;;;;;;1.33;100.00;99904.94;5034441;28;20024;-72
2021/12/09 10:17:14;;;;;;;38.40;13.10;;;;;;;1.11;100.00;99856.03;5041242;28;20044;-76
2021/12/09 10:19:47;;;;;;;31.35;10.10;;;;;;;1.25;100.00;99916.66;5033599;28;20194;-73
2021/12/09 10:22:20;;;;;;;99.47;43.45;;;;;;;1.75;100.00;99948.22;5016447;28;20039;-74
2021/12/09 10:24:48;;;;;;;51.20;20.20;;;;;;;0.79;100.00;99715.94;5043643;28;20041;-74
2021/12/09 10:27:40;;;;;;;33.75;13.18;;;;;;;0.77;100.00;99738.59;5035240;28;20024;-73
2021/12/09 10:30:06;;;;;;;28.08;9.70;;;;;;;1.71;100.00;99909.47;5047898;28;20148;-73
2021/12/09 10:32:34;;;;;;;35.85;10.77;;;;;;;2.03;100.00;99913.41;5019592;28;20514;-72
2021/12/09 10:35:11;;;;;;;29.80;11.38;;;;;;;1.80;100.00;99851.63;5036221;28;20148;-72
2021/12/09 10:37:39;;;;;;;24.55;9.90;;;;;;;1.75;100.00;99867.53;5032149;28;20013;-72
2021/12/09 10:40:11;;;;;;;25.55;10.95;;;;;;;1.49;100.00;99790.34;5050081;28;20027;-73
2021/12/09 10:42:43;;;;;;;25.92;9.90;;;;;;;2.32;100.00;99889.81;5050490;28;20053;-72
2021/12/09 10:45:36;;;;;;;25.10;10.38;;;;;;;1.94;100.00;99898.41;5053616;28;20063;-72
2021/12/09 10:53:52;;;;;;;34.35;12.07;;;;;;;1.81;100.00;99902.72;5038436;28;20025;-72
2021/12/09 10:56:29;;;;;;;29.63;10.98;;;;;;;2.06;100.00;99909.78;5057041;28;20049;-73
2021/12/09 10:58:57;;;;;;;28.25;10.45;;;;;;;1.98;100.00;99899.03;5056626;28;20032;-73
2021/12/09 11:01:26;;;;;;;28.50;11.23;;;;;;;2.04;100.00;99889.06;5054410;28;20025;-73
2021/12/09 11:04:00;;;;;;;27.67;11.50;;;;;;;2.08;100.00;99911.34;5037987;28;20029;-73
2021/12/09 11:06:35;;;;;;;25.95;11.57;;;;;;;2.33;100.00;99898.47;5055493;28;20669;-72
2021/12/09 11:09:06;;;;;;;24.08;11.00;;;;;;;2.46;100.00;99884.50;5056281;28;20040;-73
2021/12/09 11:11:34;;;;;;;27.42;10.70;;;;;;;2.18;100.00;99895.09;5056636;28;20041;-73
2021/12/09 11:14:12;;;;;;;30.88;11.50;;;;;;;2.11;100.00;99857.38;5039295;28;20032;-72
2021/12/09 11:16:49;;;;;;;25.27;10.55;;;;;;;2.50;100.00;99885.16;5061694;28;20052;-74
2021/12/09 11:19:36;;;;;;;32.55;12.68;;;;;;;2.87;100.00;99883.44;5044980;28;20036;-73
2021/12/09 11:22:11;;;;;;;30.52;11.80;;;;;;;1.97;100.00;99754.16;5039451;28;20063;-73
2021/12/09 11:24:43;;;;;;;33.63;15.02;;;;;;;2.71;100.00;99857.59;5043244;28;20025;-74
2021/12/09 11:27:14;;;;;;;34.75;12.50;;;;;;;3.06;100.00;99864.72;5059245;28;20048;-74
2021/12/09 11:29:47;;;;;;;23.45;9.60;;;;;;;2.85;100.00;99872.28;5057343;28;20467;-73
2021/12/09 11:35:02;;;;;;;26.95;11.68;;;;;;;2.79;100.00;99864.03;5062157;28;20277;-73
2021/12/09 11:44:09;;;;;;;25.88;11.48;;;;;;;2.40;100.00;99798.09;5060811;28;20065;-74
2021/12/09 11:46:40;;;;;;;30.92;12.43;;;;;;;2.32;100.00;99797.78;5058007;28;20029;-73